Time;durP1;ratioP1;P1;durP2;ratioP2;P2;SDS_P1;SDS_P2;PMS_P1;PMS_P2;Temp;Humidity;BMP_temperature;BMP_pressure;BME280_temperature;BME280_humidity;BME280_pressure;Samples;Min_cycle;Max_cycle;Signal;HPM_P1;HPM_P2
2022/08/09 00:00:08;;;;;;;5.60;4.23;;;;;;;27.82;45.25;101269.63;5148565;27;20393;-60
2022/08/09 00:02:34;;;;;;;6.25;4.40;;;;;;;27.82;46.37;101275.06;5148904;27;20888;-60
2022/08/09 00:05:00;;;;;;;4.87;4.20;;;;;;;27.78;46.25;101273.16;5148698;27;20389;-62
2022/08/09 00:07:26;;;;;;;6.63;4.40;;;;;;;27.77;46.75;101271.53;5148738;27;20420;-61
2022/08/09 00:09:51;;;;;;;5.57;4.33;;;;;;;27.76;47.32;101267.16;5148717;27;20409;-61
2022/08/09 00:12:17;;;;;;;6.17;4.10;;;;;;;27.72;47.48;101272.34;5119722;27;20397;-60
2022/08/09 00:14:42;;;;;;;7.00;4.60;;;;;;;27.54;46.81;101283.75;5107383;28;20942;-60
2022/08/09 00:17:08;;;;;;;5.15;4.47;;;;;;;27.46;46.69;101269.59;5107297;28;20408;-60
2022/08/09 00:19:34;;;;;;;5.73;4.20;;;;;;;27.45;46.73;101272.59;5106923;28;20393;-60
2022/08/09 00:22:00;;;;;;;4.90;4.40;;;;;;;27.38;47.21;101266.59;5107334;28;20381;-61
2022/08/09 00:24:25;;;;;;;7.00;4.60;;;;;;;27.39;48.01;101257.34;5107313;28;20404;-60
2022/08/09 00:26:51;;;;;;;5.43;4.70;;;;;;;27.40;48.15;101245.34;5106862;28;20416;-60
2022/08/09 00:29:17;;;;;;;5.03;4.50;;;;;;;27.34;48.39;101232.81;5107165;28;20928;-60
2022/08/09 00:31:52;;;;;;;4.63;4.20;;;;;;;27.32;47.81;101232.28;5066185;28;20408;-61
2022/08/09 00:34:18;;;;;;;5.13;4.10;;;;;;;27.31;48.13;101226.00;5067362;28;20453;-60
2022/08/09 00:36:44;;;;;;;4.88;4.40;;;;;;;27.34;48.14;101222.75;5066770;28;20476;-61
2022/08/09 00:39:10;;;;;;;5.90;4.10;;;;;;;27.30;48.34;101224.38;5067311;28;20467;-61
2022/08/09 00:41:36;;;;;;;6.10;4.30;;;;;;;27.31;48.90;101226.00;5067016;28;20889;-61
2022/08/09 00:44:02;;;;;;;5.93;4.40;;;;;;;27.27;49.07;101206.66;5066699;28;20372;-61
2022/08/09 00:46:27;;;;;;;6.13;4.07;;;;;;;27.24;48.55;101215.38;5066915;28;20453;-61
2022/08/09 00:48:53;;;;;;;4.82;4.20;;;;;;;27.20;48.76;101213.44;5067106;28;20372;-61
2022/08/09 00:51:18;;;;;;;6.13;4.53;;;;;;;27.13;48.92;101219.13;5066481;28;20424;-60
2022/08/09 00:53:45;;;;;;;5.63;4.33;;;;;;;27.07;48.77;101218.31;5066324;28;20372;-60
2022/08/09 00:56:11;;;;;;;5.55;4.70;;;;;;;27.06;49.40;101218.56;5066690;28;20376;-61
2022/08/09 00:59:52;;;;;;;6.45;4.68;;;;;;;27.06;48.71;101221.28;5066179;28;20454;-61
2022/08/09 01:02:26;;;;;;;5.63;4.97;;;;;;;27.04;49.25;101218.03;5067075;28;20400;-60
2022/08/09 01:09:29;;;;;;;6.28;4.80;;;;;;;26.87;49.79;101215.53;5066145;28;20395;-61
2022/08/09 01:11:59;;;;;;;7.60;4.75;;;;;;;26.85;50.38;101210.38;5067166;28;20501;-60
2022/08/09 01:14:56;;;;;;;5.28;4.78;;;;;;;26.81;50.71;101235.63;5067005;28;20912;-60
2022/08/09 01:17:32;;;;;;;6.43;5.03;;;;;;;26.62;50.81;101225.22;5062795;28;20457;-61
2022/08/09 01:21:46;;;;;;;6.00;4.72;;;;;;;26.65;51.16;101242.91;5066259;28;20458;-61
2022/08/09 01:24:47;;;;;;;5.45;4.70;;;;;;;26.53;51.59;101240.38;5067080;28;20402;-62
2022/08/09 01:27:17;;;;;;;6.90;5.15;;;;;;;26.37;51.48;101244.09;5059815;28;20458;-62
2022/08/09 01:29:48;;;;;;;9.40;5.50;;;;;;;26.26;51.96;101243.22;5067087;28;20383;-61
2022/08/09 01:32:17;;;;;;;5.97;5.07;;;;;;;26.25;52.30;101249.72;5066674;28;20465;-61
2022/08/09 01:34:45;;;;;;;6.10;5.50;;;;;;;26.24;52.52;101248.09;5067096;28;20372;-61
2022/08/09 01:37:15;;;;;;;7.47;4.88;;;;;;;26.22;52.05;101242.94;5066646;28;21031;-61
2022/08/09 01:39:43;;;;;;;6.80;5.28;;;;;;;26.30;52.06;101237.00;5066806;28;20512;-61
2022/08/09 01:42:09;;;;;;;6.55;5.20;;;;;;;26.33;51.58;101233.75;5066990;28;21522;-61
2022/08/09 01:44:36;;;;;;;6.97;5.30;;;;;;;26.33;51.42;101244.63;5066494;28;20798;-61
2022/08/09 01:47:03;;;;;;;6.75;4.70;;;;;;;26.23;51.23;101238.31;5066750;28;20380;-61
2022/08/09 01:49:32;;;;;;;6.27;5.00;;;;;;;26.18;51.34;101246.41;5066765;28;20517;-61
2022/08/09 01:53:37;;;;;;;5.82;4.95;;;;;;;26.13;50.72;101264.34;5074749;27;2074810;-61
2022/08/09 01:57:44;;;;;;;6.00;4.80;;;;;;;26.08;50.65;101258.88;5096150;27;2038667;-61
2022/08/09 02:00:12;;;;;;;5.72;4.60;;;;;;;26.07;50.33;101254.53;5148958;27;20398;-61
2022/08/09 02:02:48;;;;;;;5.18;4.50;;;;;;;26.10;50.13;101258.59;5148834;27;20460;-62
2022/08/09 02:05:17;;;;;;;4.70;4.22;;;;;;;26.08;49.83;101252.63;5148731;27;20460;-61
2022/08/09 02:07:47;;;;;;;7.35;5.15;;;;;;;26.02;50.25;101243.63;5148747;27;20428;-60
2022/08/09 02:10:22;;;;;;;5.72;4.75;;;;;;;26.00;50.80;101240.34;5136334;27;20390;-61
2022/08/09 02:12:49;;;;;;;6.20;4.80;;;;;;;26.00;50.94;101242.22;5128018;28;20548;-61
2022/08/09 02:15:17;;;;;;;6.20;4.82;;;;;;;26.00;51.53;101232.19;5127541;28;20745;-61
2022/08/09 02:17:45;;;;;;;6.60;5.00;;;;;;;25.92;51.67;101238.88;5127513;28;20934;-62
2022/08/09 02:20:11;;;;;;;8.52;4.65;;;;;;;25.96;51.97;101238.41;5109736;28;20386;-61
2022/08/09 02:22:52;;;;;;;6.35;4.75;;;;;;;25.98;51.90;101238.94;5128121;28;20375;-60
2022/08/09 02:27:04;;;;;;;6.88;4.95;;;;;;;25.92;51.99;101246.22;5066120;28;20469;-61
2022/08/09 02:29:36;;;;;;;6.88;5.55;;;;;;;25.93;52.10;101259.56;5067239;28;20924;-61
2022/08/09 02:32:03;;;;;;;7.28;5.70;;;;;;;25.90;52.28;101262.78;5067166;28;20404;-61
2022/08/09 02:34:32;;;;;;;10.00;6.80;;;;;;;25.90;52.46;101262.78;5066746;28;20904;-62
2022/08/09 02:37:01;;;;;;;7.57;6.30;;;;;;;25.99;52.57;101268.56;5067025;28;20878;-61
2022/08/09 02:39:34;;;;;;;7.70;5.13;;;;;;;25.95;52.34;101262.03;5066935;28;20429;-62
2022/08/09 02:42:09;;;;;;;8.25;4.88;;;;;;;25.88;52.44;101262.22;5067011;28;20392;-61
2022/08/09 02:44:41;;;;;;;6.25;4.97;;;;;;;25.89;52.71;101261.16;5066830;28;21869;-60
2022/08/09 02:47:12;;;;;;;5.10;4.60;;;;;;;25.90;52.66;101254.63;5066891;28;20383;-61
2022/08/09 02:49:44;;;;;;;5.37;4.43;;;;;;;25.88;52.75;101256.78;5066703;28;20388;-64
2022/08/09 02:52:14;;;;;;;6.07;5.10;;;;;;;25.87;53.03;101249.69;5066740;28;20882;-62
2022/08/09 02:54:41;;;;;;;7.65;4.55;;;;;;;25.88;52.52;101247.81;5066926;28;20406;-61
2022/08/09 02:59:40;;;;;;;5.63;4.38;;;;;;;26.03;52.95;101255.28;5066169;28;20404;-61
2022/08/09 03:02:07;;;;;;;7.35;4.47;;;;;;;26.02;52.89;101250.91;5066992;28;20400;-61
2022/08/09 03:04:35;;;;;;;6.13;4.40;;;;;;;26.05;53.05;101255.84;5067162;28;20384;-61
2022/08/09 03:07:03;;;;;;;5.70;4.15;;;;;;;26.04;52.35;101248.78;5067112;28;20412;-61
2022/08/09 03:09:30;;;;;;;5.50;4.15;;;;;;;26.00;52.00;101251.22;5067000;28;20953;-61
2022/08/09 03:11:58;;;;;;;6.20;3.90;;;;;;;25.96;52.14;101257.41;5066775;28;21468;-61
2022/08/09 03:14:25;;;;;;;4.85;4.15;;;;;;;25.90;51.94;101242.94;5066871;28;20372;-63
2022/08/09 03:16:53;;;;;;;6.47;4.20;;;;;;;25.97;52.40;101249.00;5066953;28;20766;-61
2022/08/09 03:19:20;;;;;;;5.65;4.40;;;;;;;26.03;51.86;101244.44;5066865;28;20411;-61
2022/08/09 03:21:49;;;;;;;5.22;4.28;;;;;;;26.02;51.94;101242.78;5066524;28;20470;-61
2022/08/09 03:24:15;;;;;;;5.63;4.28;;;;;;;26.04;52.09;101246.88;5066752;28;20547;-61
2022/08/09 03:27:24;;;;;;;8.90;4.32;;;;;;;26.02;51.64;101235.47;5066307;28;20396;-61
2022/08/09 03:29:51;;;;;;;6.88;4.50;;;;;;;26.07;51.54;101240.09;5067214;28;20506;-61
2022/08/09 03:32:18;;;;;;;5.70;4.47;;;;;;;26.12;51.57;101245.56;5067405;28;20765;-60
2022/08/09 03:34:44;;;;;;;6.90;4.15;;;;;;;26.17;51.56;101240.19;5066835;28;20387;-63
2022/08/09 03:37:09;;;;;;;7.23;4.67;;;;;;;26.21;51.51;101235.84;5066865;28;20376;-61
2022/08/09 03:39:35;;;;;;;6.00;4.30;;;;;;;26.25;51.04;101239.69;5067276;28;20387;-61
2022/08/09 03:42:01;;;;;;;6.38;4.60;;;;;;;26.24;51.08;101243.47;5067184;28;20376;-61
2022/08/09 03:44:28;;;;;;;7.93;5.07;;;;;;;26.30;51.10;101241.59;5066934;28;20380;-61
2022/08/09 03:46:54;;;;;;;5.57;4.80;;;;;;;26.34;51.05;101237.28;5066467;28;20431;-61
2022/08/09 03:49:21;;;;;;;5.25;4.75;;;;;;;26.41;51.00;101237.06;5067107;28;20388;-61
2022/08/09 03:51:50;;;;;;;7.30;4.95;;;;;;;26.47;51.12;101246.84;5066678;28;20441;-61
2022/08/09 03:54:18;;;;;;;8.05;5.60;;;;;;;26.54;50.77;101244.72;5066687;28;20384;-62
2022/08/09 03:56:44;;;;;;;8.15;5.45;;;;;;;26.59;50.40;101241.22;5066479;28;20935;-61
2022/08/09 03:59:12;;;;;;;5.95;5.35;;;;;;;26.67;50.16;101249.72;5066889;28;20385;-61
2022/08/09 04:01:40;;;;;;;7.88;5.15;;;;;;;26.75;50.38;101253.03;5040579;28;20388;-61
2022/08/09 04:04:06;;;;;;;7.28;5.07;;;;;;;26.85;49.70;101253.88;5026520;28;20387;-61
2022/08/09 04:06:32;;;;;;;11.60;5.60;;;;;;;26.97;49.36;101250.91;5038526;28;20508;-60
2022/08/09 04:09:01;;;;;;;7.83;5.20;;;;;;;27.20;48.84;101259.69;5045510;28;20472;-61
2022/08/09 04:11:39;;;;;;;14.10;5.55;;;;;;;27.40;48.58;101254.31;5043307;28;20377;-61
2022/08/09 04:14:05;;;;;;;7.03;4.93;;;;;;;27.59;47.62;101260.06;5045923;28;20462;-61
2022/08/09 04:16:30;;;;;;;6.55;5.20;;;;;;;27.65;47.77;101260.91;5045695;28;20544;-62
2022/08/09 04:18:56;;;;;;;10.70;5.00;;;;;;;27.65;47.60;101263.63;5045372;28;20430;-62
2022/08/09 04:21:21;;;;;;;6.67;4.80;;;;;;;27.68;47.11;101260.34;5044752;28;20386;-61
2022/08/09 04:23:47;;;;;;;11.17;4.90;;;;;;;27.78;46.77;101264.97;5045725;28;20883;-60
2022/08/09 04:26:12;;;;;;;8.43;5.27;;;;;;;28.06;46.40;101260.91;5056102;28;20431;-60
2022/08/09 04:28:38;;;;;;;8.90;4.90;;;;;;;28.37;45.49;101258.94;5065694;28;20530;-60
2022/08/09 04:31:05;;;;;;;7.30;4.70;;;;;;;28.65;44.71;101264.91;5065514;28;20387;-60
2022/08/09 04:33:30;;;;;;;11.75;5.05;;;;;;;28.97;43.69;101267.22;5065826;28;20384;-61
2022/08/09 04:35:56;;;;;;;7.07;4.27;;;;;;;29.26;43.10;101269.28;5065741;28;20372;-61
2022/08/09 04:38:21;;;;;;;6.43;4.00;;;;;;;29.49;42.26;101262.28;5042054;28;20394;-60
2022/08/09 04:40:47;;;;;;;8.63;4.20;;;;;;;29.78;41.51;101258.00;5039497;28;20436;-61
2022/08/09 04:43:17;;;;;;;5.90;4.17;;;;;;;30.03;40.81;101274.16;5043218;28;20381;-61
2022/08/09 04:45:43;;;;;;;5.97;4.18;;;;;;;30.23;40.50;101275.06;5042038;28;20418;-61
2022/08/09 04:48:09;;;;;;;7.63;4.97;;;;;;;30.18;40.43;101266.91;5037826;28;20393;-61
2022/08/09 04:50:34;;;;;;;7.85;4.55;;;;;;;30.28;40.67;101277.75;5033658;28;20837;-61
2022/08/09 04:53:00;;;;;;;7.17;4.70;;;;;;;30.75;39.66;101269.88;5039515;28;20924;-61
2022/08/09 04:55:26;;;;;;;7.53;4.97;;;;;;;31.43;38.44;101274.97;5033116;28;20776;-62
2022/08/09 04:57:51;;;;;;;9.10;4.73;;;;;;;31.94;37.49;101275.28;5032944;28;20448;-61
2022/08/09 05:00:17;;;;;;;6.30;4.53;;;;;;;32.86;35.83;101276.34;5038480;28;20378;-62
2022/08/09 05:02:44;;;;;;;9.77;4.60;;;;;;;33.90;33.81;101273.63;5040521;28;20422;-61
2022/08/09 05:05:10;;;;;;;9.60;4.68;;;;;;;34.85;32.43;101272.44;5039503;28;20436;-61
2022/08/09 05:07:36;;;;;;;7.75;4.65;;;;;;;35.53;30.97;101276.69;5037082;28;20394;-61
2022/08/09 05:10:02;;;;;;;10.68;4.70;;;;;;;34.49;32.13;101277.34;5038915;28;20896;-61
2022/08/09 05:12:28;;;;;;;11.18;4.40;;;;;;;33.89;33.18;101279.47;5034806;28;20389;-61
2022/08/09 05:14:54;;;;;;;8.32;4.38;;;;;;;34.63;31.66;101272.53;5036514;28;21563;-61
2022/08/09 05:17:19;;;;;;;6.40;4.20;;;;;;;36.21;29.57;101278.84;5033439;28;20943;-61
2022/08/09 05:19:45;;;;;;;7.93;4.25;;;;;;;37.46;27.77;101280.22;5033126;28;20385;-61
2022/08/09 05:22:12;;;;;;;8.55;4.55;;;;;;;36.65;29.01;101280.25;5031630;28;20448;-61
2022/08/09 05:24:39;;;;;;;9.05;4.88;;;;;;;35.38;30.91;101287.09;5038953;28;20379;-61
2022/08/09 05:27:04;;;;;;;4.82;4.30;;;;;;;37.27;28.28;101275.16;5041939;28;20416;-61
2022/08/09 05:29:30;;;;;;;5.93;4.40;;;;;;;40.31;24.23;101282.97;5036308;28;20386;-61
2022/08/09 05:31:59;;;;;;;6.03;4.38;;;;;;;42.41;21.87;101277.66;5039841;28;20459;-62
2022/08/09 05:34:30;;;;;;;6.90;4.47;;;;;;;40.05;24.40;101294.63;5035032;28;20391;-61
2022/08/09 05:36:56;;;;;;;6.55;4.47;;;;;;;39.38;25.62;101288.81;5036646;28;20385;-61
2022/08/09 05:39:22;;;;;;;5.90;4.90;;;;;;;40.31;24.74;101296.84;5033464;28;20426;-62
2022/08/09 05:41:48;;;;;;;5.80;5.20;;;;;;;43.85;20.78;101285.84;5034057;28;20393;-61
2022/08/09 05:44:13;;;;;;;8.60;7.80;;;;;;;45.68;18.58;101280.41;5048054;28;20373;-62
2022/08/09 05:46:39;;;;;;;6.53;5.30;;;;;;;46.69;17.82;101288.78;5033994;28;20406;-62
2022/08/09 05:49:05;;;;;;;6.78;4.30;;;;;;;47.21;17.24;101279.75;5033979;28;20398;-62
2022/08/09 05:51:30;;;;;;;6.43;4.20;;;;;;;47.73;16.66;101279.06;5032320;28;20379;-62
2022/08/09 05:53:56;;;;;;;7.33;4.20;;;;;;;48.57;15.56;101273.03;5031733;28;20382;-62
2022/08/09 05:56:21;;;;;;;5.68;4.03;;;;;;;49.72;14.82;101290.38;5037375;28;20419;-62
2022/08/09 05:58:47;;;;;;;5.10;3.70;;;;;;;50.70;13.24;101283.81;5043273;28;20879;-60
2022/08/09 06:01:13;;;;;;;7.67;3.70;;;;;;;47.95;15.26;101288.88;5042051;28;20384;-60
2022/08/09 06:03:39;;;;;;;5.57;3.53;;;;;;;44.54;18.09;101295.56;5041646;28;20381;-61
2022/08/09 06:06:04;;;;;;;4.50;3.70;;;;;;;43.82;19.04;101297.78;5040584;28;20441;-61
2022/08/09 06:08:30;;;;;;;4.67;3.60;;;;;;;44.62;18.03;101296.41;5035374;28;20908;-60
2022/08/09 06:10:56;;;;;;;5.83;3.80;;;;;;;44.24;18.37;101296.53;5033580;28;20465;-61
2022/08/09 06:13:22;;;;;;;4.28;3.60;;;;;;;41.54;20.84;101305.94;5034222;28;20394;-61
2022/08/09 06:15:49;;;;;;;4.03;3.63;;;;;;;40.94;21.44;101311.06;5032059;28;20382;-62
2022/08/09 06:18:14;;;;;;;6.75;4.10;;;;;;;40.21;22.70;101305.75;5031398;28;20418;-61
2022/08/09 06:20:40;;;;;;;4.60;4.20;;;;;;;39.23;23.81;101309.00;5037039;28;20875;-61
2022/08/09 06:23:06;;;;;;;4.88;4.03;;;;;;;38.61;24.46;101314.63;5038938;28;20390;-61
2022/08/09 06:25:32;;;;;;;5.43;3.83;;;;;;;37.85;25.54;101314.00;5040263;28;20426;-60
2022/08/09 06:27:58;;;;;;;6.53;4.05;;;;;;;37.37;26.30;101318.19;5044543;28;20462;-60
2022/08/09 06:30:24;;;;;;;4.97;4.07;;;;;;;37.30;26.56;101324.25;5038087;28;20469;-63
2022/08/09 06:32:51;;;;;;;7.95;4.20;;;;;;;37.27;26.54;101322.16;5033461;28;20378;-60
2022/08/09 06:35:20;;;;;;;9.35;4.18;;;;;;;37.34;26.98;101316.09;5035350;28;20381;-60
2022/08/09 06:37:46;;;;;;;4.90;4.40;;;;;;;40.49;23.05;101315.97;5031927;28;20810;-60
2022/08/09 06:40:12;;;;;;;5.00;4.10;;;;;;;44.48;18.59;101308.31;5031924;28;20493;-60
2022/08/09 06:42:37;;;;;;;7.50;4.57;;;;;;;45.79;17.19;101303.69;5035141;28;20381;-60
2022/08/09 06:45:03;;;;;;;7.40;4.10;;;;;;;47.86;15.37;101300.59;5040926;28;20379;-60
2022/08/09 06:47:28;;;;;;;5.53;4.37;;;;;;;46.26;16.64;101303.66;5033608;28;20438;-62
2022/08/09 06:49:54;;;;;;;6.03;4.10;;;;;;;43.67;18.87;101302.41;5031307;28;20784;-61
2022/08/09 06:52:19;;;;;;;8.37;4.07;;;;;;;44.57;18.10;101296.78;5030551;28;20401;-61
2022/08/09 06:54:45;;;;;;;4.63;3.90;;;;;;;50.27;13.33;101294.69;5036600;28;20483;-62
2022/08/09 06:57:13;;;;;;;4.75;4.00;;;;;;;52.83;11.22;101282.94;5035604;28;20801;-61
2022/08/09 06:59:39;;;;;;;5.18;4.32;;;;;;;54.10;10.69;101286.09;5039710;28;20468;-62
2022/08/09 07:02:05;;;;;;;4.50;4.00;;;;;;;48.29;14.71;101291.00;5034175;28;20375;-62
2022/08/09 07:04:31;;;;;;;5.10;4.00;;;;;;;47.86;15.23;101289.34;5019216;28;20770;-61
2022/08/09 07:06:56;;;;;;;6.10;4.70;;;;;;;47.70;15.16;101293.91;5041587;28;20405;-61
2022/08/09 07:09:22;;;;;;;5.90;4.70;;;;;;;44.00;18.63;101300.72;5033439;28;20387;-61
2022/08/09 07:11:47;;;;;;;5.40;4.57;;;;;;;41.46;21.06;101305.00;5031630;28;20922;-60
2022/08/09 07:14:16;;;;;;;4.80;4.40;;;;;;;39.90;22.67;101310.06;5012996;28;20394;-61
2022/08/09 07:16:45;;;;;;;5.53;4.72;;;;;;;39.09;23.93;101301.84;5035371;28;20437;-61
2022/08/09 07:19:14;;;;;;;6.60;4.53;;;;;;;38.40;24.81;101309.16;5043350;28;20378;-61
2022/08/09 07:21:39;;;;;;;8.55;5.03;;;;;;;39.51;23.54;101317.34;5039927;28;20373;-62
2022/08/09 07:24:06;;;;;;;5.43;4.93;;;;;;;44.29;18.50;101304.56;5035565;28;20401;-62
2022/08/09 07:26:32;;;;;;;7.55;4.85;;;;;;;45.45;17.37;101308.00;5035974;28;20422;-63
2022/08/09 07:28:57;;;;;;;8.33;5.30;;;;;;;43.25;19.21;101308.28;5033861;28;20757;-63
2022/08/09 07:31:23;;;;;;;5.57;5.03;;;;;;;41.92;20.71;101309.88;5033120;28;20420;-62
2022/08/09 07:33:48;;;;;;;6.40;5.27;;;;;;;40.50;22.22;101315.59;5033173;28;20378;-62
2022/08/09 07:36:15;;;;;;;13.07;7.07;;;;;;;40.16;23.25;101313.53;5030777;28;20422;-62
2022/08/09 07:38:40;;;;;;;9.15;5.10;;;;;;;39.87;23.48;101316.34;5030573;28;20390;-62
2022/08/09 07:41:06;;;;;;;5.20;4.70;;;;;;;39.73;23.66;101311.22;5039607;28;20381;-61
2022/08/09 07:43:32;;;;;;;8.02;4.60;;;;;;;39.61;23.86;101318.81;5048169;28;20882;-62
2022/08/09 07:45:58;;;;;;;7.35;5.20;;;;;;;39.50;23.83;101310.97;5033257;28;20536;-62
2022/08/09 07:48:23;;;;;;;9.48;5.00;;;;;;;39.28;24.71;101309.56;5030281;28;20394;-62
2022/08/09 07:50:49;;;;;;;7.07;5.17;;;;;;;39.09;24.74;101321.25;5031893;28;20882;-62
2022/08/09 07:53:14;;;;;;;6.07;4.90;;;;;;;38.98;24.79;101315.38;5039077;28;20388;-62
2022/08/09 07:55:40;;;;;;;6.83;5.80;;;;;;;38.69;25.36;101319.22;5034974;28;20436;-62
2022/08/09 07:58:05;;;;;;;8.03;5.50;;;;;;;38.48;25.91;101315.75;5038375;28;20411;-63
2022/08/09 08:00:31;;;;;;;6.23;5.43;;;;;;;38.35;25.79;101320.47;5033120;28;20379;-62
2022/08/09 08:02:58;;;;;;;6.70;5.20;;;;;;;37.97;25.61;101319.56;5029617;28;20473;-62
2022/08/09 08:05:24;;;;;;;6.65;5.30;;;;;;;36.97;25.49;101324.13;5029064;28;20464;-62
2022/08/09 08:07:50;;;;;;;6.03;5.00;;;;;;;36.96;25.69;101323.34;5030316;28;20379;-62
2022/08/09 08:10:16;;;;;;;6.28;5.70;;;;;;;36.41;26.55;101330.59;5034768;28;20436;-63
2022/08/09 08:12:43;;;;;;;7.72;5.50;;;;;;;35.64;27.49;101321.28;5033419;28;20386;-62
2022/08/09 08:15:10;;;;;;;8.10;5.50;;;;;;;35.48;28.12;101315.47;5037366;28;20961;-61
2022/08/09 08:17:36;;;;;;;8.43;5.57;;;;;;;35.51;27.99;101306.53;5034394;28;20776;-61
2022/08/09 08:20:02;;;;;;;6.35;5.50;;;;;;;35.31;28.67;101313.50;5034112;28;20398;-62
2022/08/09 08:22:27;;;;;;;6.70;6.05;;;;;;;35.49;28.06;101311.56;5042668;28;20507;-61
2022/08/09 08:24:56;;;;;;;8.60;5.70;;;;;;;35.32;28.09;101320.66;5047301;28;20436;-61
2022/08/09 08:27:22;;;;;;;6.85;5.22;;;;;;;34.90;28.37;101315.56;5040816;28;20508;-61
2022/08/09 08:29:48;;;;;;;6.68;4.97;;;;;;;34.85;28.87;101307.44;5052074;28;20392;-62
2022/08/09 08:32:13;;;;;;;6.10;5.00;;;;;;;34.50;29.12;101306.47;5051271;28;20376;-62
2022/08/09 08:34:39;;;;;;;9.83;4.93;;;;;;;34.48;29.19;101312.31;5050602;28;20811;-63
2022/08/09 08:37:05;;;;;;;6.27;5.20;;;;;;;34.75;29.12;101324.25;5050238;28;20396;-63
2022/08/09 08:39:30;;;;;;;7.07;5.37;;;;;;;34.33;29.73;101312.75;5050696;28;20437;-63
2022/08/09 08:41:57;;;;;;;7.10;5.40;;;;;;;34.30;29.93;101311.41;5052303;28;20423;-62
2022/08/09 08:44:24;;;;;;;5.63;4.70;;;;;;;34.44;30.01;101312.13;5052554;28;20394;-62
2022/08/09 08:48:42;;;;;;;5.60;4.65;;;;;;;34.35;29.64;101313.22;5095030;27;2067298;-62
2022/08/09 08:51:08;;;;;;;7.80;5.05;;;;;;;34.42;29.59;101306.13;5148888;27;20385;-63
2022/08/09 08:53:34;;;;;;;7.73;4.80;;;;;;;34.42;29.33;101308.88;5148827;27;20369;-62
2022/08/09 08:56:01;;;;;;;7.25;4.90;;;;;;;34.53;29.48;101306.66;5148700;27;20426;-63
2022/08/09 08:58:28;;;;;;;5.75;4.70;;;;;;;34.84;29.35;101298.38;5148422;27;20389;-62
2022/08/09 09:00:56;;;;;;;5.65;5.00;;;;;;;34.83;29.19;101296.75;5148629;27;20370;-63
2022/08/09 09:03:24;;;;;;;8.23;4.80;;;;;;;35.14;28.80;101304.06;5148470;27;20441;-63
2022/08/09 09:05:53;;;;;;;6.40;4.85;;;;;;;34.85;29.39;101297.22;5148412;27;20418;-62
2022/08/09 09:08:20;;;;;;;6.88;4.80;;;;;;;35.02;29.09;101298.38;5148475;27;20413;-64
2022/08/09 09:10:47;;;;;;;6.85;4.88;;;;;;;35.13;29.13;101291.44;5148262;27;20377;-63
2022/08/09 09:13:16;;;;;;;7.40;5.40;;;;;;;35.26;28.85;101289.69;5148146;27;20489;-62
2022/08/09 09:15:42;;;;;;;5.90;5.30;;;;;;;35.14;28.95;101286.75;5148232;27;21366;-62
2022/08/09 09:18:14;;;;;;;7.88;5.53;;;;;;;34.79;29.41;101295.78;5147993;27;20400;-65
2022/08/09 09:20:39;;;;;;;6.38;5.30;;;;;;;34.75;29.57;101288.44;5148291;27;20380;-63
2022/08/09 09:23:05;;;;;;;7.82;5.50;;;;;;;34.77;29.95;101281.50;5147875;27;20365;-63
2022/08/09 09:25:40;;;;;;;7.53;5.50;;;;;;;34.70;30.04;101280.34;5148091;27;20369;-63
2022/08/09 09:28:08;;;;;;;5.88;5.28;;;;;;;34.76;30.05;101277.13;5148065;27;20417;-61
2022/08/09 09:30:51;;;;;;;7.10;5.18;;;;;;;34.79;29.43;101278.41;5147866;27;20411;-63
2022/08/09 09:33:16;;;;;;;5.57;5.07;;;;;;;34.96;29.65;101270.19;5147936;27;20385;-61
2022/08/09 09:35:59;;;;;;;9.67;5.63;;;;;;;35.20;29.53;101277.19;5147640;27;20377;-62
2022/08/09 09:38:46;;;;;;;7.32;5.13;;;;;;;34.70;29.80;101274.84;5147970;27;20385;-62
2022/08/09 09:41:26;;;;;;;6.40;4.95;;;;;;;34.75;29.74;101274.69;5147818;27;20373;-61
2022/08/09 09:43:57;;;;;;;6.28;5.18;;;;;;;34.50;30.05;101276.22;5147676;27;20373;-62
2022/08/09 09:46:31;;;;;;;5.82;5.20;;;;;;;33.89;30.70;101274.78;5147513;27;20452;-61
2022/08/09 09:48:58;;;;;;;5.90;4.93;;;;;;;34.03;31.02;101269.19;5147722;27;20418;-61
2022/08/09 09:51:28;;;;;;;8.15;5.07;;;;;;;34.17;30.77;101265.53;5147977;27;20416;-62
2022/08/09 09:54:08;;;;;;;6.15;5.25;;;;;;;33.92;31.07;101267.81;5147241;27;20373;-61
2022/08/09 09:56:45;;;;;;;6.60;5.20;;;;;;;33.86;31.18;101267.16;5147131;27;20386;-61
2022/08/09 09:59:13;;;;;;;6.88;5.30;;;;;;;33.90;31.23;101261.84;5138581;27;20374;-61
2022/08/09 10:01:43;;;;;;;6.45;5.35;;;;;;;33.89;31.19;101262.97;5133749;27;20374;-61
2022/08/09 10:04:17;;;;;;;7.13;5.00;;;;;;;33.82;31.59;101249.66;5133883;27;20374;-61
2022/08/09 10:06:45;;;;;;;5.70;5.03;;;;;;;33.92;31.88;101256.03;5133422;27;20680;-61
2022/08/09 10:09:12;;;;;;;5.80;5.03;;;;;;;34.07;31.49;101245.44;5133618;27;20388;-62
2022/08/09 10:11:39;;;;;;;7.45;5.28;;;;;;;34.18;31.46;101246.00;5133460;27;20382;-62
2022/08/09 10:14:05;;;;;;;5.78;5.00;;;;;;;33.83;31.37;101253.22;5133443;27;20435;-61
2022/08/09 10:16:36;;;;;;;5.93;4.90;;;;;;;33.72;31.89;101245.22;5133084;27;20415;-61
2022/08/09 10:19:05;;;;;;;6.95;5.10;;;;;;;33.58;31.88;101249.16;5133685;27;20382;-61
2022/08/09 10:21:31;;;;;;;7.53;5.30;;;;;;;33.46;31.86;101236.78;5133018;27;20465;-61
2022/08/09 10:24:00;;;;;;;9.50;4.80;;;;;;;33.53;32.12;101233.63;5133074;27;20948;-61
2022/08/09 10:26:27;;;;;;;6.20;4.47;;;;;;;33.49;32.44;101236.19;5133137;27;20428;-62
2022/08/09 10:28:53;;;;;;;5.57;4.78;;;;;;;33.61;32.33;101237.53;5132876;27;20378;-61
2022/08/09 10:31:19;;;;;;;6.73;4.90;;;;;;;33.60;32.23;101239.47;5133066;27;20431;-62
2022/08/09 10:33:45;;;;;;;7.80;4.78;;;;;;;33.46;32.35;101233.25;5133009;27;20468;-61
2022/08/09 10:36:12;;;;;;;5.35;4.35;;;;;;;33.58;32.24;101227.16;5133140;27;20370;-60
2022/08/09 10:38:40;;;;;;;4.80;3.93;;;;;;;33.67;30.24;101222.56;5132973;27;20898;-62
2022/08/09 10:41:06;;;;;;;6.83;4.10;;;;;;;33.79;29.38;101216.47;5132848;27;20402;-62
2022/08/09 10:43:33;;;;;;;4.13;3.72;;;;;;;33.83;29.62;101215.53;5132725;27;20381;-63
2022/08/09 10:46:12;;;;;;;4.60;4.10;;;;;;;33.91;29.92;101213.97;5132593;27;20891;-63
2022/08/09 10:48:57;;;;;;;7.07;4.10;;;;;;;34.12;29.86;101216.94;5132768;27;20421;-62
2022/08/09 10:51:40;;;;;;;6.10;3.83;;;;;;;34.21;29.40;101209.56;5132715;27;20374;-62
2022/08/09 10:54:09;;;;;;;5.53;3.90;;;;;;;34.28;29.41;101209.91;5132682;27;20370;-62
2022/08/09 10:56:37;;;;;;;5.90;4.10;;;;;;;34.23;29.40;101206.50;5132319;27;20445;-63
2022/08/09 10:59:21;;;;;;;5.20;4.10;;;;;;;33.92;30.10;101212.00;5132536;27;20374;-62
2022/08/09 11:01:48;;;;;;;6.30;4.13;;;;;;;34.03;29.89;101202.34;5132421;27;20884;-62
2022/08/09 11:04:22;;;;;;;4.85;4.00;;;;;;;34.16;30.00;101201.44;5132437;27;20378;-63
2022/08/09 11:06:57;;;;;;;4.65;4.05;;;;;;;33.92;29.88;101201.81;5132335;27;20402;-62
2022/08/09 11:09:42;;;;;;;5.03;3.88;;;;;;;33.93;30.45;101197.94;5132302;27;20859;-62
2022/08/09 11:12:16;;;;;;;7.68;4.03;;;;;;;34.12;30.26;101186.69;5131567;27;20441;-63
2022/08/09 11:14:50;;;;;;;6.45;5.05;;;;;;;34.20;30.32;101201.66;5131810;27;20412;-62
2022/08/09 11:17:15;;;;;;;4.30;3.58;;;;;;;34.20;29.86;101191.44;5132143;27;20739;-62
2022/08/09 11:19:58;;;;;;;5.57;3.80;;;;;;;34.23;29.58;101185.31;5132177;27;20403;-62
2022/08/09 11:22:39;;;;;;;6.68;3.80;;;;;;;34.40;29.13;101178.22;5098348;28;20407;-62
2022/08/09 11:25:14;;;;;;;5.88;4.03;;;;;;;34.45;29.35;101183.59;5100901;28;20392;-61
2022/08/09 11:27:41;;;;;;;7.65;4.10;;;;;;;34.33;29.16;101166.88;5094301;28;20405;-62
2022/08/09 11:30:08;;;;;;;5.00;4.00;;;;;;;34.48;29.33;101166.41;5092461;28;20400;-62
2022/08/09 11:32:40;;;;;;;5.17;4.07;;;;;;;34.43;29.46;101175.66;5095581;28;20387;-61
2022/08/09 11:35:27;;;;;;;7.68;3.90;;;;;;;34.19;29.38;101164.25;5105819;28;20374;-61
2022/08/09 11:37:57;;;;;;;7.30;4.03;;;;;;;34.07;29.49;101160.16;5102043;28;20415;-63
2022/08/09 11:40:31;;;;;;;6.50;4.05;;;;;;;34.13;29.49;101152.56;5095759;28;20380;-62
2022/08/09 11:42:59;;;;;;;4.78;3.72;;;;;;;34.09;29.44;101149.63;5104867;28;20384;-62
2022/08/09 11:45:28;;;;;;;6.60;3.97;;;;;;;34.20;29.35;101141.91;5096150;28;20383;-62